Time;durP1;ratioP1;P1;durP2;ratioP2;P2;SDS_P1;SDS_P2;PMS_P1;PMS_P2;Temp;Humidity;BMP_temperature;BMP_pressure;BME280_temperature;BME280_humidity;BME280_pressure;Samples;Min_cycle;Max_cycle;Signal;HPM_P1;HPM_P2
2022/05/21 00:02:37;;;;;;;9.75;7.30;;;;;;;19.31;69.03;98330.08;2045274;87;20987;-84
2022/05/21 00:05:38;;;;;;;12.88;7.78;;;;;;;19.35;68.94;98337.00;2045288;87;21007;-83
2022/05/21 00:08:38;;;;;;;11.10;7.80;;;;;;;19.35;69.12;98320.67;2044782;87;21007;-84
2022/05/21 00:11:39;;;;;;;13.13;7.75;;;;;;;19.35;69.67;98318.02;2044224;87;20936;-84
2022/05/21 00:14:39;;;;;;;8.75;6.67;;;;;;;19.33;70.89;98313.70;2044938;87;20984;-84
2022/05/21 00:17:39;;;;;;;15.45;9.38;;;;;;;19.28;70.38;98300.61;2044553;87;21391;-82
2022/05/21 00:20:49;;;;;;;11.90;7.92;;;;;;;19.21;71.13;98287.17;2044530;87;20959;-81
2022/05/21 00:23:49;;;;;;;9.05;6.95;;;;;;;19.15;71.21;98279.42;2044418;87;20943;-82
2022/05/21 00:26:49;;;;;;;15.40;7.05;;;;;;;19.14;71.88;98276.38;2044606;87;20987;-83
2022/05/21 00:29:50;;;;;;;21.02;7.60;;;;;;;19.08;72.09;98261.56;2045354;87;20940;-83
2022/05/21 00:32:50;;;;;;;18.25;8.38;;;;;;;19.04;72.33;98257.24;2045404;87;21414;-84
2022/05/21 00:35:51;;;;;;;14.28;8.63;;;;;;;19.02;72.87;98248.49;2044703;87;21007;-82
2022/05/21 00:38:51;;;;;;;11.65;7.90;;;;;;;18.91;73.82;98245.77;2044824;87;20936;-82
2022/05/21 00:41:51;;;;;;;15.13;7.87;;;;;;;18.78;74.00;98261.15;2044878;87;20951;-81
2022/05/21 00:44:52;;;;;;;13.78;8.48;;;;;;;18.72;74.94;98263.98;2044789;87;21316;-81
2022/05/21 00:47:52;;;;;;;11.63;8.40;;;;;;;18.72;75.45;98258.69;2044204;87;20955;-80
2022/05/21 00:50:53;;;;;;;14.13;9.43;;;;;;;18.63;75.27;98249.72;2047605;86;20983;-80
2022/05/21 00:53:53;;;;;;;17.32;9.85;;;;;;;18.56;76.05;98225.21;2053847;87;21012;-81
2022/05/21 00:56:53;;;;;;;13.45;8.40;;;;;;;18.47;76.45;98232.09;2053744;87;20947;-81
2022/05/21 00:59:54;;;;;;;11.80;7.72;;;;;;;18.46;77.11;98221.98;2053862;87;21035;-81
2022/05/21 01:02:55;;;;;;;9.50;7.67;;;;;;;18.44;77.44;98211.91;2054257;87;21351;-81
2022/05/21 01:05:55;;;;;;;12.45;7.62;;;;;;;18.36;77.69;98193.23;2054082;87;21233;-80
2022/05/21 01:08:55;;;;;;;11.97;7.37;;;;;;;18.28;78.50;98199.20;2054537;87;21300;-79
2022/05/21 01:11:55;;;;;;;11.83;7.67;;;;;;;18.13;78.87;98179.34;2054684;86;20940;-80
2022/05/21 01:14:56;;;;;;;10.63;7.60;;;;;;;18.13;78.87;98179.34;2054430;87;21350;-82
2022/05/21 01:17:56;;;;;;;10.48;7.40;;;;;;;18.07;79.18;98186.98;2054432;87;20947;-82
2022/05/21 01:20:57;;;;;;;9.03;6.97;;;;;;;18.04;79.14;98174.33;2054540;87;20948;-81
2022/05/21 01:23:57;;;;;;;7.72;6.67;;;;;;;18.01;79.46;98175.73;2054400;87;21436;-80
2022/05/21 01:26:58;;;;;;;12.45;7.30;;;;;;;17.91;79.68;98177.77;2054323;87;20995;-80
2022/05/21 01:29:58;;;;;;;7.35;6.45;;;;;;;17.86;80.09;98176.17;2054486;87;20951;-81
2022/05/21 01:32:58;;;;;;;12.03;6.05;;;;;;;17.85;80.37;98180.58;2054651;87;20912;-82
2022/05/21 01:35:59;;;;;;;13.43;6.85;;;;;;;17.88;80.89;98173.03;2054403;87;20995;-82
2022/05/21 01:38:59;;;;;;;15.30;5.00;;;;;;;17.97;80.15;98165.72;2054754;87;21000;-82
2022/05/21 01:41:59;;;;;;;8.08;5.00;;;;;;;18.13;79.18;98169.64;2054911;87;20944;-82
2022/05/21 01:45:00;;;;;;;11.55;5.30;;;;;;;18.23;78.44;98160.16;2054344;87;20939;-83
2022/05/21 01:48:02;;;;;;;15.10;4.92;;;;;;;18.29;78.09;98163.48;2054281;87;21418;-82
2022/05/21 01:51:01;;;;;;;8.05;4.20;;;;;;;18.34;77.41;98148.81;2054074;85;21007;-83
2022/05/21 01:54:01;;;;;;;12.85;4.28;;;;;;;18.45;76.53;98137.47;2054351;87;20947;-83
2022/05/21 01:57:01;;;;;;;11.53;4.15;;;;;;;18.53;75.93;98142.05;2054219;87;20959;-81
2022/05/21 02:00:02;;;;;;;13.70;4.33;;;;;;;18.58;75.28;98139.27;2054651;87;21013;-81
2022/05/21 02:03:02;;;;;;;6.42;3.58;;;;;;;18.62;74.96;98129.91;2054872;87;21017;-83
2022/05/21 02:06:03;;;;;;;9.75;4.08;;;;;;;18.65;74.26;98136.88;2054817;87;21015;-82
2022/05/21 02:09:03;;;;;;;11.83;4.12;;;;;;;18.66;74.33;98127.57;2054638;87;21399;-82
2022/05/21 02:12:03;;;;;;;17.82;4.50;;;;;;;18.66;73.91;98136.83;2054804;87;20935;-82
2022/05/21 02:15:04;;;;;;;10.78;3.90;;;;;;;18.71;73.65;98124.32;2055116;87;21146;-82
2022/05/21 02:18:04;;;;;;;8.03;3.70;;;;;;;18.73;73.32;98129.10;2054587;87;20940;-81
2022/05/21 02:21:07;;;;;;;12.33;3.72;;;;;;;18.75;73.37;98134.34;2054278;87;20967;-81
2022/05/21 02:24:05;;;;;;;7.40;3.60;;;;;;;18.77;72.87;98120.62;2054755;87;20908;-81
2022/05/21 02:27:05;;;;;;;6.08;3.40;;;;;;;18.76;72.77;98128.14;2054545;87;21043;-81
2022/05/21 02:30:06;;;;;;;6.42;3.65;;;;;;;18.73;72.68;98119.85;2054829;87;20952;-82
2022/05/21 02:33:06;;;;;;;6.42;3.50;;;;;;;18.78;72.14;98132.92;2054734;87;20924;-81
2022/05/21 02:36:07;;;;;;;7.92;3.35;;;;;;;18.81;71.99;98135.47;2054319;87;21043;-82
2022/05/21 02:39:25;;;;;;;9.90;3.72;;;;;;;18.89;71.56;98149.77;2054852;87;20902;-82
2022/05/21 02:42:44;;;;;;;6.80;3.22;;;;;;;18.91;71.66;98171.27;2054848;87;21124;-83
2022/05/21 02:45:44;;;;;;;10.78;3.45;;;;;;;18.90;71.67;98173.51;2055339;87;20951;-83
2022/05/21 02:48:44;;;;;;;18.35;3.83;;;;;;;18.89;71.90;98167.81;2055140;87;21391;-84
2022/05/21 02:51:45;;;;;;;6.22;3.60;;;;;;;18.84;72.22;98184.28;2050454;86;20999;-83
2022/05/21 02:54:45;;;;;;;16.67;3.65;;;;;;;18.84;72.32;98187.38;2045473;87;21169;-83
2022/05/21 02:57:46;;;;;;;6.65;3.85;;;;;;;18.80;72.40;98187.94;2045555;87;20980;-82
2022/05/21 03:00:46;;;;;;;10.20;4.45;;;;;;;18.76;72.94;98197.75;2045383;87;20939;-81
2022/05/21 03:03:47;;;;;;;5.42;3.30;;;;;;;18.74;72.78;98198.70;2045565;87;20924;-80
2022/05/21 03:06:47;;;;;;;5.33;3.50;;;;;;;18.73;72.48;98199.62;2044984;87;21335;-81
2022/05/21 03:13:06;;;;;;;7.17;3.35;;;;;;;18.69;73.30;98197.53;2045188;87;21004;-81
2022/05/21 03:16:07;;;;;;;5.30;3.50;;;;;;;18.69;73.07;98205.45;2045294;87;20984;-80
2022/05/21 03:19:07;;;;;;;9.85;3.72;;;;;;;18.70;73.35;98201.91;2045183;87;20950;-81
2022/05/21 03:22:08;;;;;;;7.42;4.10;;;;;;;18.71;72.84;98194.37;2045484;87;20913;-82
2022/05/21 03:25:08;;;;;;;8.85;3.75;;;;;;;18.72;73.32;98187.31;2045478;87;20947;-82
2022/05/21 03:28:08;;;;;;;5.60;3.02;;;;;;;18.74;73.14;98195.61;2045304;87;21342;-81
2022/05/21 03:31:08;;;;;;;4.62;3.05;;;;;;;18.75;73.18;98204.41;2045221;87;20967;-82
2022/05/21 03:34:09;;;;;;;8.55;3.60;;;;;;;18.75;73.33;98205.72;2045211;87;20963;-80
2022/05/21 03:37:09;;;;;;;7.12;3.58;;;;;;;18.73;73.12;98203.13;2044589;87;21461;-82
2022/05/21 03:40:10;;;;;;;6.78;3.62;;;;;;;18.76;72.95;98214.93;2044002;87;20963;-82
2022/05/21 03:43:10;;;;;;;5.72;3.70;;;;;;;18.80;72.97;98210.41;2044037;87;20995;-81
2022/05/21 03:46:10;;;;;;;9.63;3.92;;;;;;;18.83;73.05;98213.41;2044789;87;20988;-80
2022/05/21 03:49:11;;;;;;;5.05;3.20;;;;;;;18.82;73.15;98219.16;2044888;87;21008;-81
2022/05/21 03:52:11;;;;;;;7.92;3.55;;;;;;;18.81;73.03;98221.85;2049722;86;21031;-82
2022/05/21 03:55:12;;;;;;;5.70;3.20;;;;;;;18.81;72.97;98224.50;2054575;87;20955;-82
2022/05/21 03:58:12;;;;;;;5.45;3.37;;;;;;;18.78;73.50;98230.29;2054611;87;20955;-81
2022/05/21 04:01:12;;;;;;;4.65;3.55;;;;;;;18.78;73.02;98234.71;2053675;87;20959;-79
2022/05/21 04:04:13;;;;;;;10.13;4.17;;;;;;;18.75;73.51;98237.45;2053239;87;21367;-81
2022/05/21 04:07:14;;;;;;;9.18;4.75;;;;;;;18.94;73.64;98228.03;2052525;87;21437;-82
2022/05/21 04:10:14;;;;;;;7.55;3.65;;;;;;;19.14;72.71;98224.78;2053210;87;20976;-81
2022/05/21 04:13:15;;;;;;;5.53;3.80;;;;;;;19.23;72.33;98228.91;2053648;87;20995;-82
2022/05/21 04:16:15;;;;;;;10.65;4.10;;;;;;;19.28;72.11;98229.62;2054005;87;21335;-81
2022/05/21 04:19:16;;;;;;;5.83;3.52;;;;;;;19.40;72.29;98238.48;2053899;87;21026;-82
2022/05/21 04:22:16;;;;;;;8.23;3.72;;;;;;;19.57;71.10;98244.11;2053641;87;20955;-80
2022/05/21 04:25:16;;;;;;;28.98;3.77;;;;;;;19.70;70.38;98248.06;2052889;87;21044;-80
2022/05/21 04:28:17;;;;;;;15.95;4.28;;;;;;;19.57;70.34;98239.27;2053043;86;20951;-81
2022/05/21 04:31:17;;;;;;;95.35;9.80;;;;;;;19.55;70.59;98244.62;2052667;87;20947;-81
2022/05/21 04:34:18;;;;;;;21.10;4.30;;;;;;;19.57;71.43;98251.19;2053111;86;21019;-80
2022/05/21 04:37:19;;;;;;;15.48;4.30;;;;;;;19.78;70.45;98249.13;2053811;87;21078;-81
2022/05/21 04:40:19;;;;;;;13.78;4.05;;;;;;;19.60;70.74;98263.00;2053667;86;20959;-81
2022/05/21 04:43:19;;;;;;;11.20;3.52;;;;;;;19.59;71.12;98268.75;2053906;87;21010;-81
2022/05/21 04:46:19;;;;;;;5.35;3.92;;;;;;;19.48;71.35;98273.50;2053626;87;20991;-80
2022/05/21 04:49:20;;;;;;;8.20;3.72;;;;;;;19.43;71.46;98281.19;2053948;87;20992;-80
2022/05/21 04:52:20;;;;;;;8.80;3.50;;;;;;;19.31;72.38;98282.45;2048909;85;20999;-80
2022/05/21 04:55:21;;;;;;;5.83;3.90;;;;;;;19.24;73.12;98285.75;2044069;87;20959;-81
2022/05/21 04:58:21;;;;;;;7.15;4.10;;;;;;;19.33;72.89;98272.67;2044198;87;21677;-81
2022/05/21 05:01:21;;;;;;;6.45;3.87;;;;;;;19.48;72.31;98280.58;2044829;87;20944;-80
2022/05/21 05:04:22;;;;;;;6.45;3.80;;;;;;;19.42;72.44;98289.58;2044876;87;20947;-79
2022/05/21 05:07:23;;;;;;;7.55;3.83;;;;;;;19.38;72.28;98283.52;2045526;87;21039;-80
2022/05/21 05:10:22;;;;;;;5.85;3.80;;;;;;;19.34;72.03;98292.93;2045695;87;20932;-82
2022/05/21 05:13:23;;;;;;;5.58;3.85;;;;;;;19.35;72.06;98300.82;2045390;87;20955;-80
2022/05/21 05:16:23;;;;;;;5.53;3.60;;;;;;;19.37;71.43;98306.06;2045404;87;20999;-81
2022/05/21 05:19:24;;;;;;;7.35;3.75;;;;;;;19.55;70.88;98308.16;2044652;87;21037;-82
2022/05/21 05:22:24;;;;;;;6.15;3.27;;;;;;;19.85;69.89;98315.99;2045043;87;20996;-80
2022/05/21 05:25:25;;;;;;;9.85;3.52;;;;;;;19.89;69.19;98308.34;2045074;87;20949;-80
2022/05/21 05:28:25;;;;;;;4.65;3.50;;;;;;;19.80;68.91;98317.92;2044862;87;20960;-80
2022/05/21 05:31:25;;;;;;;6.58;3.45;;;;;;;19.67;68.87;98320.98;2045073;87;21299;-80
2022/05/21 05:34:26;;;;;;;29.40;4.05;;;;;;;19.61;68.96;98314.57;2044335;87;20956;-80
2022/05/21 05:37:27;;;;;;;5.72;3.35;;;;;;;19.55;66.32;98312.58;2044571;87;20998;-80
2022/05/21 05:40:28;;;;;;;9.55;3.15;;;;;;;19.42;66.02;98312.08;2045449;87;20951;-80
2022/05/21 05:43:27;;;;;;;6.15;2.92;;;;;;;19.35;66.12;98330.39;2045144;87;21024;-79
2022/05/21 05:46:27;;;;;;;12.28;2.75;;;;;;;19.58;63.68;98325.72;2044895;87;20952;-80
2022/05/21 05:49:28;;;;;;;5.80;2.75;;;;;;;19.90;60.25;98339.22;2045195;87;21373;-79
2022/05/21 05:52:28;;;;;;;7.92;2.85;;;;;;;20.14;59.62;98318.53;2049726;86;20999;-83
2022/05/21 05:55:29;;;;;;;18.48;2.33;;;;;;;20.45;59.10;98325.44;2054818;87;20968;-82
2022/05/21 06:01:48;;;;;;;7.03;2.40;;;;;;;20.81;56.06;98335.18;2054424;86;20962;-81
2022/05/21 06:04:48;;;;;;;11.45;2.30;;;;;;;20.83;55.02;98346.14;2053718;87;20948;-79
2022/05/21 06:07:48;;;;;;;7.35;2.70;;;;;;;20.89;54.52;98335.30;2054016;86;21039;-80
2022/05/21 06:10:52;;;;;;;10.03;2.75;;;;;;;21.14;55.52;98329.91;2054364;87;21340;-80
2022/05/21 06:13:52;;;;;;;8.58;2.75;;;;;;;21.03;53.88;98345.84;2054081;87;20940;-81
2022/05/21 06:16:52;;;;;;;7.87;2.55;;;;;;;20.75;54.94;98342.88;2053586;87;20939;-81
2022/05/21 06:19:53;;;;;;;4.33;2.37;;;;;;;20.61;55.84;98343.84;2053969;87;20968;-82
2022/05/21 06:22:53;;;;;;;13.25;2.50;;;;;;;20.32;56.28;98332.47;2053952;87;20924;-80
2022/05/21 06:25:53;;;;;;;4.50;2.30;;;;;;;19.95;56.32;98381.02;2053606;87;20992;-81
2022/05/21 06:28:54;;;;;;;6.30;2.08;;;;;;;19.67;57.39;98375.72;2053973;87;20982;-80
2022/05/21 06:31:54;;;;;;;9.05;2.00;;;;;;;19.68;56.84;98371.70;2054379;86;20987;-80
2022/05/21 06:34:55;;;;;;;5.55;1.82;;;;;;;19.78;55.69;98382.86;2054533;87;20916;-81
2022/05/21 06:37:55;;;;;;;7.20;1.40;;;;;;;19.78;53.62;98396.56;2053555;86;21030;-81
2022/05/21 06:40:56;;;;;;;6.05;1.45;;;;;;;19.59;51.24;98411.70;2053616;87;21312;-81
2022/05/21 06:43:56;;;;;;;11.90;1.30;;;;;;;19.36;50.83;98425.62;2053586;87;20990;-81
2022/05/21 06:46:56;;;;;;;2.15;1.20;;;;;;;19.57;51.29;98408.70;2053610;87;21019;-80
2022/05/21 06:49:58;;;;;;;16.60;1.40;;;;;;;19.75;50.58;98417.84;2053599;87;20971;-81
2022/05/21 06:52:57;;;;;;;7.45;1.40;;;;;;;19.73;49.07;98429.34;2048337;86;20999;-81
2022/05/21 06:55:58;;;;;;;6.33;1.00;;;;;;;20.04;48.98;98431.05;2044729;87;20943;-81
2022/05/21 06:58:58;;;;;;;8.25;1.37;;;;;;;20.25;48.08;98418.41;2044600;87;21309;-79
2022/05/21 07:01:58;;;;;;;12.85;1.20;;;;;;;20.43;48.47;98437.28;2043847;87;20944;-81
2022/05/21 07:08:22;;;;;;;3.33;1.40;;;;;;;20.09;48.15;98433.55;2044103;87;21359;-80
2022/05/21 07:11:20;;;;;;;7.45;1.17;;;;;;;20.15;48.64;98442.16;2014713;87;21056;-82
2022/05/21 07:14:20;;;;;;;4.72;1.50;;;;;;;20.32;49.18;98433.19;2043897;87;20928;-81
2022/05/21 07:17:21;;;;;;;17.87;1.60;;;;;;;20.16;49.76;98437.27;2044313;87;20959;-80
2022/05/21 07:20:21;;;;;;;11.53;1.52;;;;;;;19.90;49.04;98444.70;2044447;87;20995;-80
2022/05/21 07:23:21;;;;;;;14.47;1.52;;;;;;;19.66;49.40;98459.58;2044165;87;20960;-81
2022/05/21 07:26:22;;;;;;;7.05;1.30;;;;;;;19.54;49.85;98464.38;2044167;87;20956;-82
2022/05/21 07:29:22;;;;;;;2.87;1.10;;;;;;;19.57;50.52;98447.95;2044478;87;20956;-80
2022/05/21 07:32:23;;;;;;;1.70;1.20;;;;;;;19.59;50.61;98460.69;2044986;87;21003;-82
2022/05/21 07:35:23;;;;;;;6.87;1.40;;;;;;;19.50;50.93;98464.03;2044996;87;20924;-81
2022/05/21 07:38:23;;;;;;;1.75;1.17;;;;;;;19.60;50.98;98461.55;2044464;87;20952;-80
2022/05/21 07:41:24;;;;;;;5.05;1.10;;;;;;;19.60;51.31;98458.91;2044492;87;20947;-81
2022/05/21 07:44:24;;;;;;;8.45;2.00;;;;;;;19.39;51.26;98481.56;2044863;87;21000;-82
2022/05/21 07:47:25;;;;;;;7.92;1.32;;;;;;;19.14;52.38;98479.20;2044378;87;21407;-81
2022/05/21 07:50:25;;;;;;;3.83;1.65;;;;;;;18.90;53.07;98478.08;2044615;87;21060;-84
2022/05/21 07:53:25;;;;;;;4.08;1.22;;;;;;;18.82;53.84;98469.48;2049616;87;21039;-84
2022/05/21 07:56:29;;;;;;;3.85;1.30;;;;;;;18.82;53.62;98486.22;2053232;87;21272;-81
2022/05/21 07:59:26;;;;;;;7.85;1.70;;;;;;;19.00;52.52;98492.78;2053120;87;20994;-81
2022/05/21 08:02:27;;;;;;;1.92;1.10;;;;;;;19.46;49.86;98502.96;2053510;87;20959;-83
2022/05/21 08:05:27;;;;;;;4.37;1.52;;;;;;;19.52;49.38;98501.49;2053235;87;20995;-82
2022/05/21 08:08:27;;;;;;;3.55;1.32;;;;;;;19.41;50.15;98498.27;2053141;87;20955;-82
2022/05/21 08:11:28;;;;;;;8.05;2.00;;;;;;;19.41;50.48;98496.94;2053221;87;21320;-82
2022/05/21 08:14:28;;;;;;;2.60;1.10;;;;;;;19.25;50.70;98511.52;2054102;87;20955;-82
2022/05/21 08:17:29;;;;;;;2.95;1.45;;;;;;;19.07;51.67;98509.80;2054015;87;21036;-81
2022/05/21 08:20:29;;;;;;;5.80;1.20;;;;;;;19.39;51.15;98502.73;2054619;87;20975;-82
2022/05/21 08:26:57;;;;;;;10.45;1.12;;;;;;;20.06;46.55;98522.40;2054104;86;20964;-82
2022/05/21 08:29:57;;;;;;;4.80;1.15;;;;;;;20.00;45.47;98520.35;2053012;87;21480;-81
2022/05/21 08:32:58;;;;;;;15.25;1.57;;;;;;;19.85;46.53;98518.14;2053151;87;20950;-81
2022/05/21 08:35:58;;;;;;;9.85;1.35;;;;;;;19.84;46.27;98516.41;2053568;87;21042;-84
2022/05/21 08:38:58;;;;;;;5.30;1.10;;;;;;;19.91;46.31;98514.44;2053669;87;20943;-83
2022/05/21 08:41:59;;;;;;;7.30;1.37;;;;;;;19.73;45.64;98543.22;2053463;87;21011;-80
2022/05/21 08:44:59;;;;;;;6.70;1.02;;;;;;;19.36;45.94;98543.84;2052951;87;21303;-83
2022/05/21 08:48:00;;;;;;;5.22;1.15;;;;;;;19.21;46.79;98528.39;2053026;87;21027;-81
2022/05/21 08:51:00;;;;;;;3.10;1.10;;;;;;;19.71;45.62;98534.91;2053816;87;20979;-81
2022/05/21 08:54:00;;;;;;;8.33;1.35;;;;;;;20.16;44.17;98520.73;2053830;85;20987;-83
2022/05/21 08:57:01;;;;;;;5.17;1.10;;;;;;;20.09;44.06;98519.66;2055038;87;20959;-82
2022/05/21 09:00:01;;;;;;;5.37;1.07;;;;;;;20.10;45.10;98523.58;2054791;87;20935;-82
2022/05/21 09:03:02;;;;;;;11.33;2.02;;;;;;;20.00;44.79;98526.11;2054366;87;20975;-82
2022/05/21 09:06:02;;;;;;;9.18;1.15;;;;;;;20.49;44.38;98524.11;2054324;87;20998;-82
2022/05/21 09:09:02;;;;;;;23.85;1.90;;;;;;;21.19;43.24;98520.83;2054215;87;20987;-83
2022/05/21 09:12:03;;;;;;;9.13;1.20;;;;;;;21.61;40.10;98539.66;2054540;87;20980;-82
2022/05/21 09:15:03;;;;;;;22.22;1.87;;;;;;;21.73;40.45;98529.94;2053685;87;21156;-83
2022/05/21 09:18:04;;;;;;;13.62;1.25;;;;;;;21.33;39.62;98524.34;2052855;87;21460;-80
2022/05/21 09:21:04;;;;;;;5.53;0.90;;;;;;;21.07;40.93;98511.52;2052802;87;20915;-82
2022/05/21 09:24:05;;;;;;;6.03;1.02;;;;;;;20.64;40.87;98522.73;2053309;87;20964;-82
2022/05/21 09:27:05;;;;;;;16.45;1.22;;;;;;;20.31;40.26;98558.67;2053733;87;21354;-81
2022/05/21 09:30:05;;;;;;;8.35;1.17;;;;;;;20.59;39.71;98531.30;2053747;87;20988;-81
2022/05/21 09:33:06;;;;;;;17.42;1.30;;;;;;;20.81;40.28;98526.16;2054035;86;20967;-82
2022/05/21 09:36:06;;;;;;;6.08;1.20;;;;;;;21.44;38.01;98535.44;2054061;87;21455;-81
2022/05/21 09:39:07;;;;;;;1.70;1.15;;;;;;;21.26;37.50;98528.55;2054213;87;20955;-82
2022/05/21 09:42:07;;;;;;;8.10;1.20;;;;;;;21.52;37.81;98534.23;2054429;86;20920;-82
2022/05/21 09:45:22;;;;;;;5.85;1.40;;;;;;;21.39;38.28;98530.30;2054825;87;20971;-81
2022/05/21 09:48:23;;;;;;;10.00;1.80;;;;;;;21.16;39.62;98542.17;2054717;87;21309;-83
2022/05/21 09:51:24;;;;;;;7.92;1.42;;;;;;;20.70;40.48;98562.30;2054508;87;20963;-81
2022/05/21 09:54:24;;;;;;;6.28;1.20;;;;;;;20.30;41.35;98566.22;2047263;86;20983;-81
2022/05/21 09:57:24;;;;;;;7.95;1.25;;;;;;;19.99;40.31;98558.81;2045193;87;20939;-81
2022/05/21 10:00:25;;;;;;;11.55;1.27;;;;;;;20.30;40.23;98582.58;2044865;87;20956;-77
2022/05/21 10:03:26;;;;;;;10.15;1.25;;;;;;;20.48;39.53;98551.99;2044324;87;20996;-79
2022/05/21 10:06:26;;;;;;;14.30;1.42;;;;;;;20.43;40.05;98557.91;2045036;87;21450;-80
2022/05/21 10:12:45;;;;;;;7.75;1.22;;;;;;;20.56;40.05;98561.89;2043574;87;21324;-81
2022/05/21 10:15:46;;;;;;;12.58;1.70;;;;;;;20.73;39.84;98569.28;2043848;87;20948;-80
2022/05/21 10:18:46;;;;;;;12.35;1.40;;;;;;;20.49;40.31;98571.83;2043946;87;20964;-83
2022/05/21 10:21:46;;;;;;;13.78;1.40;;;;;;;20.21;41.22;98584.19;2043541;87;20996;-80
2022/05/21 10:24:47;;;;;;;7.20;1.00;;;;;;;20.64;40.60;98571.78;2044276;87;20956;-81
2022/05/21 10:27:47;;;;;;;23.50;2.08;;;;;;;21.10;39.97;98566.27;2044639;87;21028;-80
2022/05/21 10:30:48;;;;;;;4.47;1.02;;;;;;;21.51;37.93;98568.34;2044233;87;20951;-81
2022/05/21 10:33:48;;;;;;;12.70;2.00;;;;;;;21.63;37.25;98569.23;2044309;87;20912;-80
2022/05/21 10:36:48;;;;;;;17.57;1.70;;;;;;;21.62;37.69;98576.79;2044151;87;21403;-81
2022/05/21 10:39:49;;;;;;;21.25;2.00;;;;;;;21.63;37.84;98583.83;2044838;87;20990;-82
2022/05/21 10:42:50;;;;;;;7.53;1.20;;;;;;;21.26;38.05;98591.39;2044865;87;20932;-82
2022/05/21 10:45:50;;;;;;;6.15;1.10;;;;;;;21.43;38.36;98574.86;2044976;87;20987;-82
2022/05/21 10:48:50;;;;;;;9.08;1.65;;;;;;;21.57;38.09;98583.19;2044876;87;21015;-82
2022/05/21 10:51:50;;;;;;;9.23;2.33;;;;;;;21.52;38.64;98592.66;2045119;87;20943;-82
2022/05/21 10:54:51;;;;;;;12.37;2.00;;;;;;;21.75;37.78;98590.52;2044878;87;20979;-82
2022/05/21 10:57:51;;;;;;;14.35;1.85;;;;;;;22.30;38.22;98578.25;2045745;87;20976;-81
2022/05/21 11:00:52;;;;;;;9.53;1.47;;;;;;;22.42;36.44;98589.27;2045967;87;20959;-83
2022/05/21 11:03:52;;;;;;;3.45;1.40;;;;;;;21.79;36.21;98599.23;2045373;87;21354;-82
2022/05/21 11:06:52;;;;;;;10.80;1.65;;;;;;;21.27;37.88;98581.18;2045448;87;21015;-83
2022/05/21 11:09:53;;;;;;;13.90;1.60;;;;;;;21.22;38.75;98587.08;2045510;87;20955;-82
2022/05/21 11:12:53;;;;;;;5.25;1.20;;;;;;;21.97;38.26;98577.28;2045140;87;20932;-81
2022/05/21 11:15:54;;;;;;;12.60;1.50;;;;;;;22.07;36.60;98581.81;2044819;87;20944;-82
2022/05/21 11:18:54;;;;;;;8.33;1.00;;;;;;;21.85;34.75;98601.66;2044665;87;21035;-83
2022/05/21 11:21:54;;;;;;;11.10;1.35;;;;;;;21.85;35.12;98605.19;2044464;87;20952;-83
2022/05/21 11:24:55;;;;;;;4.33;1.20;;;;;;;21.78;35.27;98601.03;2044621;87;20967;-82
2022/05/21 11:27:56;;;;;;;6.12;1.37;;;;;;;22.20;35.41;98597.23;2044779;87;21358;-82
2022/05/21 11:30:56;;;;;;;9.33;1.20;;;;;;;22.13;34.67;98614.80;2045188;87;20956;-82
2022/05/21 11:40:18;;;;;;;6.00;1.10;;;;;;;21.70;34.93;98627.01;2045157;87;20944;-82
2022/05/21 11:43:18;;;;;;;2.62;1.07;;;;;;;21.71;35.67;98622.09;2045721;87;20951;-82
2022/05/21 11:46:20;;;;;;;7.20;1.05;;;;;;;22.14;35.48;98632.48;2045575;87;20966;-81
2022/05/21 11:49:19;;;;;;;3.22;0.95;;;;;;;21.67;35.28;98618.25;2045389;87;20987;-82
2022/05/21 11:52:20;;;;;;;5.92;1.10;;;;;;;21.37;36.57;98613.12;2045616;87;21003;-82
2022/05/21 11:55:20;;;;;;;2.42;0.90;;;;;;;20.96;36.35;98630.44;2045220;86;20995;-82
2022/05/21 11:58:20;;;;;;;4.35;1.27;;;;;;;20.66;37.82;98636.25;2045730;87;20971;-82
2022/05/21 12:01:21;;;;;;;5.10;1.30;;;;;;;20.74;38.85;98637.33;2045070;87;20956;-82
2022/05/21 12:04:21;;;;;;;3.98;1.60;;;;;;;21.19;37.85;98628.33;2045552;87;20956;-82
2022/05/21 12:07:22;;;;;;;4.58;1.60;;;;;;;21.48;38.20;98642.81;2045190;87;20992;-83
2022/05/21 12:10:22;;;;;;;4.05;1.07;;;;;;;21.39;37.69;98638.28;2045385;87;20928;-83
2022/05/21 12:13:23;;;;;;;5.40;1.30;;;;;;;21.64;36.68;98644.46;2045415;87;20971;-82
2022/05/21 12:16:24;;;;;;;3.67;1.12;;;;;;;22.09;36.23;98635.32;2044925;87;20963;-82
2022/05/21 12:19:23;;;;;;;3.92;1.07;;;;;;;21.98;35.17;98658.74;2044687;87;20935;-82
2022/05/21 12:22:24;;;;;;;6.90;1.30;;;;;;;21.68;35.60;98647.91;2045016;87;21008;-80
2022/05/21 12:25:26;;;;;;;2.90;1.20;;;;;;;21.76;35.22;98661.78;2015286;87;20942;-82
2022/05/21 12:28:26;;;;;;;2.62;1.37;;;;;;;21.79;35.56;98651.91;2044883;87;21008;-83
2022/05/21 12:31:27;;;;;;;8.45;1.50;;;;;;;21.65;35.53;98647.52;2045056;87;21340;-81
2022/05/21 12:34:27;;;;;;;9.13;0.98;;;;;;;21.54;35.24;98662.52;2044373;87;21003;-83
2022/05/21 12:37:30;;;;;;;1.70;1.02;;;;;;;21.49;35.33;98667.58;2044773;87;21075;-82
2022/05/21 12:40:29;;;;;;;7.28;1.20;;;;;;;21.75;34.40;98660.91;2045199;87;21395;-82
2022/05/21 12:43:28;;;;;;;8.45;1.55;;;;;;;21.63;34.34;98666.17;2045531;87;20960;-82
2022/05/21 12:46:29;;;;;;;5.10;1.40;;;;;;;21.79;34.61;98678.94;2045531;87;20931;-81
2022/05/21 12:49:29;;;;;;;16.00;1.65;;;;;;;21.83;34.56;98670.80;2045505;87;20956;-81
2022/05/21 12:52:30;;;;;;;6.15;1.55;;;;;;;21.16;35.19;98679.73;2045764;87;20944;-82
2022/05/21 12:55:30;;;;;;;3.77;1.27;;;;;;;20.64;36.03;98683.17;2045579;85;21035;-82
2022/05/21 12:58:31;;;;;;;6.35;1.20;;;;;;;20.31;37.18;98687.23;2045819;87;21268;-83
2022/05/21 13:01:31;;;;;;;7.72;1.45;;;;;;;20.10;37.65;98689.64;2046047;87;20987;-83
2022/05/21 13:04:31;;;;;;;6.45;1.70;;;;;;;20.23;37.12;98689.23;2045955;87;20968;-82
2022/05/21 13:07:32;;;;;;;2.25;1.20;;;;;;;20.25;37.45;98711.27;2045898;85;21486;-82
2022/05/21 13:10:32;;;;;;;5.22;1.52;;;;;;;20.26;37.36;98702.86;2045911;87;20941;-83
2022/05/21 13:13:32;;;;;;;5.62;1.60;;;;;;;20.35;37.67;98698.15;2045905;87;20952;-81
2022/05/21 13:16:33;;;;;;;3.75;1.30;;;;;;;20.34;37.91;98700.39;2045780;87;20964;-83
2022/05/21 13:19:33;;;;;;;7.05;1.65;;;;;;;20.32;38.07;98706.20;2045677;87;20989;-81
2022/05/21 13:22:34;;;;;;;8.03;1.50;;;;;;;20.20;37.08;98709.20;2045732;87;20944;-81
2022/05/21 13:25:34;;;;;;;4.80;1.60;;;;;;;20.20;37.60;98710.53;2045699;87;20964;-82
2022/05/21 13:28:34;;;;;;;2.08;1.37;;;;;;;20.38;37.71;98718.86;2045940;87;20967;-82
2022/05/21 13:31:35;;;;;;;4.95;1.20;;;;;;;20.76;37.64;98714.61;2045976;87;20976;-83
2022/05/21 13:34:35;;;;;;;4.33;1.50;;;;;;;20.74;36.55;98712.47;2046100;87;20956;-82
2022/05/21 13:37:36;;;;;;;4.65;1.40;;;;;;;20.59;37.23;98707.18;2045774;85;21039;-82
2022/05/21 13:40:36;;;;;;;3.37;1.70;;;;;;;20.42;37.47;98720.53;2045806;87;20935;-83
2022/05/21 13:43:36;;;;;;;5.62;1.60;;;;;;;20.38;37.78;98714.42;2045986;87;20947;-83
2022/05/21 13:46:37;;;;;;;4.05;1.52;;;;;;;20.46;37.84;98731.00;2045895;87;20960;-82
2022/05/21 13:49:37;;;;;;;2.25;1.72;;;;;;;20.52;37.58;98728.17;2045679;87;20920;-82
2022/05/21 13:52:37;;;;;;;3.33;1.82;;;;;;;20.40;36.67;98731.19;2045510;87;21300;-82
2022/05/21 13:55:38;;;;;;;2.60;1.37;;;;;;;20.43;37.21;98724.92;2053429;85;21203;-81
2022/05/21 13:58:38;;;;;;;2.65;1.30;;;;;;;20.38;37.69;98720.18;2055349;87;21028;-84
2022/05/21 14:01:39;;;;;;;4.15;1.50;;;;;;;20.25;38.30;98720.54;2055437;87;20940;-83
2022/05/21 14:04:39;;;;;;;5.00;1.30;;;;;;;20.00;38.27;98744.67;2055469;87;20936;-82
2022/05/21 14:07:39;;;;;;;4.72;1.60;;;;;;;19.63;38.93;98734.17;2055088;87;21471;-83
2022/05/21 14:10:40;;;;;;;3.90;1.40;;;;;;;19.54;39.16;98739.70;2055412;87;20943;-83
2022/05/21 14:13:40;;;;;;;4.33;1.60;;;;;;;19.53;39.05;98729.57;2055379;87;20920;-82
2022/05/21 14:16:41;;;;;;;4.50;2.33;;;;;;;19.59;39.08;98729.86;2055445;87;20936;-83
2022/05/21 14:19:41;;;;;;;1.65;1.22;;;;;;;19.67;39.09;98726.56;2055112;87;20936;-82
2022/05/21 14:22:41;;;;;;;3.02;1.40;;;;;;;19.78;39.01;98720.97;2055411;87;20931;-84
2022/05/21 14:25:42;;;;;;;6.80;3.95;;;;;;;19.80;38.95;98723.99;2055393;87;21355;-83
2022/05/21 14:28:42;;;;;;;3.25;1.80;;;;;;;19.72;39.45;98726.85;2055262;87;21024;-82
2022/05/21 14:31:43;;;;;;;3.12;1.50;;;;;;;19.68;38.43;98729.63;2055214;87;20936;-83